Alm Tesl — YJTS6 — position and weather

sailwx.info

Track history (hours):
 
Tides and Currents Weather Stations Pressure Air Temp Water Temp Dewpoint Dewpoint Depression Visibility Wind Speed Wind Dir Waves Ship Positions

Alm Tesl

Last reported at 2018-Jan-05 17:59 UTC. Time now 2018-Jan-24 03:56 UTC.
Position N 37°53' E 025°47'.
Warning: this ship's position is 18 days out of date.

Length 88 m; draft 12.5 m.

Type: Cargo ship. MMSI: 201222000.

Date/timePositionNaut miles runAvg speedWind from/ knotsBaromVisibWave heightAir tempDewpointWater temp
2018-Jan-05 17:59N 37°53' E 025°47'4 8.7
2018-Jan-05 17:30N 37°49' E 025°48'4 8.6
2018-Jan-05 17:00N 37°44' E 025°48'8 8.3
2018-Jan-05 16:06N 37°37' E 025°49'1 8.2
2018-Jan-05 15:59N 37°36' E 025°49'4 8.0
2018-Jan-05 15:30N 37°32' E 025°49'4 7.5
2018-Jan-05 15:00N 37°28' E 025°50'4 7.2
2018-Jan-05 14:30N 37°25' E 025°52'4 7.7
2018-Jan-05 14:00N 37°22' E 025°55'4 7.4
2018-Jan-05 13:30N 37°19' E 025°57'4 7.3
2018-Jan-05 13:00N 37°16' E 025°60'3 7.0
2018-Jan-05 12:30N 37°13' E 026°02'3 6.7
2018-Jan-05 12:00N 37°10' E 026°04'3 5.8
2018-Jan-05 11:30N 37°08' E 026°06'3 5.4
2018-Jan-05 11:01N 37°05' E 026°08'3 5.5
2018-Jan-05 10:31N 37°03' E 026°10'3 5.7
2018-Jan-05 10:01N 37°01' E 026°12'3 5.3
2018-Jan-05 09:30N 36°58' E 026°14'3 5.4
2018-Jan-05 08:59N 36°56' E 026°16'3 5.6
2018-Jan-05 08:30N 36°54' E 026°18'4 5.1
2018-Jan-05 07:43N 36°51' E 026°21'1 5.6
2018-Jan-05 07:31N 36°51' E 026°22'3 5.7
2018-Jan-05 07:00N 36°48' E 026°25'3 6.2
2018-Jan-05 06:30N 36°46' E 026°27'3 5.7
2018-Jan-05 06:00N 36°44' E 026°30'3 5.5
2018-Jan-05 05:30N 36°42' E 026°32'2 4.5
2018-Jan-05 05:00N 36°40' E 026°34'2 4.4
2018-Jan-05 04:30N 36°38' E 026°35'3 4.6
2018-Jan-05 03:47N 36°36' E 026°38'2 4.7
2018-Jan-05 03:25N 36°35' E 026°39'  
Track history (hours):
 
Tides and Currents Weather Stations Pressure Air Temp Water Temp Dewpoint Dewpoint Depression Visibility Wind Speed Wind Dir Waves Ship Positions

Alm Tesl

Last reported at 2018-Jan-05 17:59 UTC. Time now 2018-Jan-24 03:56 UTC.
Position N 37°53' E 025°47'.
Warning: this ship's position is 18 days out of date.

Length 88 m; draft 12.5 m.

Type: Cargo ship. MMSI: 201222000.

Date/timePositionNaut miles runAvg speedWind from/ knotsBaromVisibWave heightAir tempDewpointWater temp
2018-Jan-05 17:59N 37°53' E 025°47'4 8.7
2018-Jan-05 17:30N 37°49' E 025°48'4 8.6
2018-Jan-05 17:00N 37°44' E 025°48'8 8.3
2018-Jan-05 16:06N 37°37' E 025°49'1 8.2
2018-Jan-05 15:59N 37°36' E 025°49'4 8.0
2018-Jan-05 15:30N 37°32' E 025°49'4 7.5
2018-Jan-05 15:00N 37°28' E 025°50'4 7.2
2018-Jan-05 14:30N 37°25' E 025°52'4 7.7
2018-Jan-05 14:00N 37°22' E 025°55'4 7.4
2018-Jan-05 13:30N 37°19' E 025°57'4 7.3
2018-Jan-05 13:00N 37°16' E 025°60'3 7.0
2018-Jan-05 12:30N 37°13' E 026°02'3 6.7
2018-Jan-05 12:00N 37°10' E 026°04'3 5.8
2018-Jan-05 11:30N 37°08' E 026°06'3 5.4
2018-Jan-05 11:01N 37°05' E 026°08'3 5.5
2018-Jan-05 10:31N 37°03' E 026°10'3 5.7
2018-Jan-05 10:01N 37°01' E 026°12'3 5.3
2018-Jan-05 09:30N 36°58' E 026°14'3 5.4
2018-Jan-05 08:59N 36°56' E 026°16'3 5.6
2018-Jan-05 08:30N 36°54' E 026°18'4 5.1
2018-Jan-05 07:43N 36°51' E 026°21'1 5.6
2018-Jan-05 07:31N 36°51' E 026°22'3 5.7
2018-Jan-05 07:00N 36°48' E 026°25'3 6.2
2018-Jan-05 06:30N 36°46' E 026°27'3 5.7
2018-Jan-05 06:00N 36°44' E 026°30'3 5.5
2018-Jan-05 05:30N 36°42' E 026°32'2 4.5
2018-Jan-05 05:00N 36°40' E 026°34'2 4.4
2018-Jan-05 04:30N 36°38' E 026°35'3 4.6
2018-Jan-05 03:47N 36°36' E 026°38'2 4.7
2018-Jan-05 03:25N 36°35' E 026°39'  

Dump ship's entire track history